createdAt,value
2018-04-29T04:45:26.331Z,99894.27
2018-04-29T04:47:53.886Z,99888.30
2018-04-29T04:50:21.502Z,99891.53
2018-04-29T04:52:49.114Z,99888.98
2018-04-29T04:55:16.786Z,99888.66
2018-04-29T04:57:44.337Z,99896.60
2018-04-29T05:00:11.986Z,99890.59
2018-04-29T05:02:39.546Z,99886.89
2018-04-29T05:05:07.094Z,99884.95
2018-04-29T05:07:34.682Z,99886.70
2018-04-29T05:10:02.239Z,99890.28
2018-04-29T05:12:29.833Z,99885.91
2018-04-29T05:14:57.389Z,99889.33
2018-04-29T05:17:25.065Z,99891.19
2018-04-29T05:19:52.621Z,99891.07
2018-04-29T05:22:20.177Z,99896.12
2018-04-29T05:24:47.846Z,99904.83
2018-04-29T05:27:15.469Z,99895.33
2018-04-29T05:29:43.062Z,99897.49
2018-04-29T05:32:10.731Z,99895.91
2018-04-29T05:34:38.281Z,99894.95
2018-04-29T05:37:05.829Z,99892.81
2018-04-29T05:39:33.404Z,99893.96
2018-04-29T05:42:01.071Z,99900.27
2018-04-29T05:44:28.627Z,99906.21
2018-04-29T05:46:56.182Z,99896.67
2018-04-29T05:49:23.854Z,99902.44
2018-04-29T05:51:51.417Z,99905.25
2018-04-29T05:54:19.023Z,99894.95
2018-04-29T05:56:46.630Z,99892.37
2018-04-29T05:59:14.219Z,99885.97
2018-04-29T06:01:41.775Z,99880.45
2018-04-29T06:04:09.386Z,99888.13
2018-04-29T06:06:37.226Z,99876.59
2018-04-29T06:09:05.718Z,99877.48
2018-04-29T06:11:33.383Z,99879.93
2018-04-29T06:14:01.042Z,99881.41
2018-04-29T06:16:28.558Z,99885.14
2018-04-29T06:18:56.978Z,99883.81
2018-04-29T06:21:24.580Z,99885.95
2018-04-29T06:23:52.121Z,99891.36
2018-04-29T06:26:19.757Z,99880.39
2018-04-29T06:28:47.367Z,99884.63
2018-04-29T06:31:14.907Z,99883.48
2018-04-29T06:33:42.552Z,99880.50
2018-04-29T06:36:10.093Z,99883.84
2018-04-29T06:38:37.755Z,99881.09
2018-04-29T06:41:05.306Z,99887.75
2018-04-29T06:43:32.868Z,99893.23
2018-04-29T06:46:00.481Z,99893.73
2018-04-29T06:48:28.886Z,99902.40
2018-04-29T06:50:56.492Z,99897.41
2018-04-29T06:53:24.098Z,99890.01
2018-04-29T06:55:51.733Z,99899.17
2018-04-29T06:58:19.285Z,99902.48
2018-04-29T07:00:46.903Z,99904.96
2018-04-29T07:03:14.449Z,99900.80
2018-04-29T07:05:42.054Z,99905.48
2018-04-29T07:08:09.672Z,99911.83
2018-04-29T07:10:37.334Z,99912.87
2018-04-29T07:13:04.946Z,99912.23
2018-04-29T07:15:32.533Z,99910.65
2018-04-29T07:18:00.231Z,99915.55
2018-04-29T07:20:27.770Z,99910.35
2018-04-29T07:22:55.369Z,99909.29
2018-04-29T07:25:22.958Z,99911.83
2018-04-29T07:27:50.597Z,99913.42
2018-04-29T07:30:19.019Z,99911.34
2018-04-29T07:32:46.565Z,99911.92
2018-04-29T07:35:14.240Z,99906.70
2018-04-29T07:37:41.852Z,99903.73
2018-04-29T07:40:09.492Z,99901.36
2018-04-29T07:42:37.083Z,99899.45
2018-04-29T07:45:04.743Z,99902.05
2018-04-29T07:47:32.342Z,99897.73
2018-04-29T07:49:59.998Z,99901.39
2018-04-29T07:52:27.581Z,99907.52
2018-04-29T07:54:55.268Z,99897.01
2018-04-29T07:57:22.979Z,99900.33
2018-04-29T07:59:50.588Z,99905.62
2018-04-29T08:02:18.654Z,99901.36
2018-04-29T08:04:46.202Z,99899.36
2018-04-29T08:07:13.842Z,99902.91
2018-04-29T08:09:41.487Z,99898.19
2018-04-29T08:12:09.086Z,99898.66
2018-04-29T08:14:36.693Z,99891.36
2018-04-29T08:17:04.242Z,99889.48
2018-04-29T08:19:31.830Z,99888.13
2018-04-29T08:21:59.866Z,99884.31
2018-04-29T08:24:27.478Z,99883.30
2018-04-29T08:26:55.118Z,99879.46
2018-04-29T08:29:22.665Z,99880.10
2018-04-29T08:31:50.996Z,99873.98
2018-04-29T08:34:18.538Z,99864.26
2018-04-29T08:36:46.213Z,99862.35
2018-04-29T08:39:13.789Z,99864.78
2018-04-29T08:41:42.378Z,99861.91
2018-04-29T08:44:10.331Z,99855.45
2018-04-29T08:46:37.874Z,99853.23
2018-04-29T08:49:05.477Z,99858.63
2018-04-29T08:51:33.903Z,99852.19
2018-04-29T08:54:01.502Z,99847.03
2018-04-29T08:56:29.056Z,99842.05
2018-04-29T08:58:56.623Z,99845.44
2018-04-29T09:01:24.802Z,99849.63
2018-04-29T09:03:52.512Z,99844.86
2018-04-29T09:06:20.046Z,99842.27
2018-04-29T09:08:47.836Z,99834.81
2018-04-29T09:11:15.442Z,99831.35
2018-04-29T09:13:42.986Z,99820.91
2018-04-29T09:16:10.681Z,99825.70
2018-04-29T09:18:38.299Z,99813.62
2018-04-29T09:21:05.857Z,99812.37
2018-04-29T09:23:33.456Z,99817.42
2018-04-29T09:26:01.139Z,99805.64
2018-04-29T09:28:28.738Z,99804.17
2018-04-29T09:30:56.428Z,99799.48
2018-04-29T09:33:24.095Z,99798.45
2018-04-29T09:35:52.347Z,99804.81
2018-04-29T09:38:19.942Z,99789.54
2018-04-29T09:40:47.514Z,99788.66
2018-04-29T09:43:15.133Z,99781.17
2018-04-29T09:45:42.682Z,99784.37
2018-04-29T09:48:10.291Z,99774.59
2018-04-29T09:50:38.040Z,99777.50
2018-04-29T09:53:05.602Z,99777.80
2018-04-29T09:55:33.150Z,99775.97
2018-04-29T09:58:00.911Z,99768.89
2018-04-29T10:00:28.521Z,99761.98
2018-04-29T10:03:11.726Z,99765.07
2018-04-29T10:05:39.285Z,99757.81
2018-04-29T10:08:07.830Z,99756.91
2018-04-29T10:10:35.370Z,99745.12
2018-04-29T10:13:02.960Z,99747.27
2018-04-29T10:15:30.568Z,99740.10
2018-04-29T10:17:58.169Z,99746.50
2018-04-29T10:20:25.718Z,99740.41
2018-04-29T10:22:53.323Z,99737.25
2018-04-29T10:25:20.917Z,99728.06
2018-04-29T10:27:48.458Z,99730.24
2018-04-29T10:30:16.127Z,99717.64
2018-04-29T10:32:44.545Z,99720.84
2018-04-29T10:35:12.041Z,99714.94
2018-04-29T10:37:39.642Z,99704.69
2018-04-29T10:40:07.229Z,99702.02
2018-04-29T10:42:34.846Z,99705.08
2018-04-29T10:45:02.505Z,99703.77
2018-04-29T10:47:31.049Z,99696.37
2018-04-29T10:49:58.638Z,99684.49
2018-04-29T10:52:26.231Z,99688.78
2018-04-29T10:54:53.846Z,99688.81
2018-04-29T10:57:21.394Z,99680.31
2018-04-29T10:59:48.964Z,99681.14
2018-04-29T11:02:16.642Z,99675.63
2018-04-29T11:04:46.255Z,99680.23
2018-04-29T11:07:13.798Z,99678.84
2018-04-29T11:09:41.407Z,99669.17
2018-04-29T11:12:09.021Z,99662.41
2018-04-29T11:14:36.589Z,99664.34
2018-04-29T11:17:05.142Z,99665.66
2018-04-29T11:19:32.687Z,99665.89
2018-04-29T11:22:00.282Z,99656.89
2018-04-29T11:24:27.943Z,99650.87
2018-04-29T11:26:56.314Z,99644.95
2018-04-29T11:29:24.924Z,99639.77
2018-04-29T11:31:52.526Z,99638.09
2018-04-29T11:34:20.170Z,99638.80
2018-04-29T11:36:48.596Z,99637.00
2018-04-29T11:39:18.050Z,99639.34
2018-04-29T11:41:45.796Z,99639.76
2018-04-29T11:44:13.403Z,99625.45
2018-04-29T11:46:41.974Z,99616.34
2018-04-29T11:49:09.576Z,99618.13
2018-04-29T11:51:37.126Z,99610.31
2018-04-29T11:54:05.574Z,99602.41
2018-04-29T11:56:33.186Z,99596.92
2018-04-29T11:59:00.738Z,99595.97
2018-04-29T12:01:28.389Z,99592.19
2018-04-29T12:03:56.006Z,99588.89
2018-04-29T12:06:23.559Z,99584.39
2018-04-29T12:08:51.155Z,99577.86
2018-04-29T12:11:18.829Z,99577.33
2018-04-29T12:13:46.439Z,99571.82
2018-04-29T12:16:13.986Z,99568.61
2018-04-29T12:18:41.577Z,99568.92
2018-04-29T12:21:10.046Z,99566.31
2018-04-29T12:23:38.470Z,99551.66
2018-04-29T12:26:06.023Z,99549.06
2018-04-29T12:28:33.694Z,99541.33
2018-04-29T12:31:02.163Z,99539.58
2018-04-29T12:33:29.767Z,99538.38
2018-04-29T12:35:57.306Z,99541.82
2018-04-29T12:38:24.890Z,99539.27
2018-04-29T12:40:52.446Z,99530.84
2018-04-29T12:43:20.041Z,99526.91
2018-04-29T12:45:47.626Z,99514.63
2018-04-29T12:48:15.215Z,99518.55
2018-04-29T12:50:42.818Z,99509.17
2018-04-29T12:53:10.362Z,99507.72
2018-04-29T12:55:37.967Z,99508.82
2018-04-29T12:58:05.563Z,99501.30
2018-04-29T13:00:33.105Z,99499.99
2018-04-29T13:03:00.649Z,99498.94
2018-04-29T13:05:28.300Z,99501.25
2018-04-29T13:07:55.902Z,99496.55
2018-04-29T13:10:24.037Z,99489.83
2018-04-29T13:12:52.694Z,99488.41
2018-04-29T13:15:20.354Z,99483.52
2018-04-29T13:17:48.413Z,99471.24
2018-04-29T13:20:16.092Z,99478.07
2018-04-29T13:22:44.929Z,99476.20
2018-04-29T13:25:13.060Z,99468.48
2018-04-29T13:27:40.738Z,99461.41
2018-04-29T13:30:09.326Z,99463.12
2018-04-29T13:32:37.071Z,99464.30
2018-04-29T13:35:04.681Z,99452.61
2018-04-29T13:37:32.331Z,99452.73
2018-04-29T13:40:00.904Z,99446.34
2018-04-29T13:42:29.279Z,99444.48
2018-04-29T13:44:57.986Z,99439.50
2018-04-29T13:47:26.875Z,99439.22
2018-04-29T13:49:54.478Z,99436.55
2018-04-29T13:52:22.102Z,99439.86
2018-04-29T13:54:49.658Z,99442.48
2018-04-29T13:57:17.200Z,99450.66
2018-04-29T13:59:44.811Z,99440.78
2018-04-29T14:02:13.122Z,99442.10
2018-04-29T14:04:40.779Z,99438.08
2018-04-29T14:07:09.252Z,99433.94
2018-04-29T14:09:37.748Z,99432.67
2018-04-29T14:12:06.255Z,99431.89
2018-04-29T14:14:33.802Z,99440.36
2018-04-29T14:17:02.035Z,99443.61
2018-04-29T14:19:29.665Z,99437.02
2018-04-29T14:21:58.049Z,99444.22
2018-04-29T14:24:26.738Z,99443.09
2018-04-29T14:26:54.455Z,99436.41
2018-04-29T14:29:22.067Z,99439.57
2018-04-29T14:31:49.801Z,99436.10
2018-04-29T14:34:17.495Z,99436.23
2018-04-29T14:36:45.034Z,99431.89
2018-04-29T14:39:13.380Z,99428.11
2018-04-29T14:41:40.930Z,99416.91
2018-04-29T14:44:08.494Z,99417.23
2018-04-29T14:46:36.126Z,99423.77
2018-04-29T14:49:04.522Z,99420.51
2018-04-29T14:51:32.063Z,99423.36
2018-04-29T14:54:00.383Z,99422.27
2018-04-29T14:56:28.742Z,99418.34
2018-04-29T14:58:57.114Z,99419.39
2018-04-29T15:01:25.308Z,99418.94
2018-04-29T15:03:52.891Z,99416.70
2018-04-29T15:06:21.499Z,99417.48
2018-04-29T15:08:49.106Z,99423.47
2018-04-29T15:11:16.856Z,99428.42
2018-04-29T15:13:44.502Z,99421.89
2018-04-29T15:16:13.069Z,99416.51
2018-04-29T15:18:52.325Z,99416.83
2018-04-29T15:21:19.870Z,99419.67
2018-04-29T15:23:47.523Z,99415.81
2018-04-29T15:26:15.673Z,99418.91
2018-04-29T15:28:43.283Z,99417.41
2018-04-29T15:31:11.805Z,99420.27
2018-04-29T15:33:40.429Z,99421.48
2018-04-29T15:36:07.984Z,99411.81
2018-04-29T15:38:35.574Z,99416.06
2018-04-29T15:41:03.249Z,99420.06
2018-04-29T15:43:31.807Z,99413.40
2018-04-29T15:45:59.359Z,99412.05
2018-04-29T15:48:27.024Z,99416.23
2018-04-29T15:50:55.513Z,99409.82
2018-04-29T15:53:23.098Z,99413.02
2018-04-29T15:55:50.746Z,99413.23
2018-04-29T15:58:18.299Z,99414.00
2018-04-29T16:00:45.901Z,99415.66
2018-04-29T16:03:13.450Z,99416.75
2018-04-29T16:05:41.088Z,99419.81
2018-04-29T16:08:08.665Z,99409.02
2018-04-29T16:10:36.718Z,99411.10
2018-04-29T16:13:04.301Z,99410.77
2018-04-29T16:15:32.050Z,99413.59
2018-04-29T16:17:59.787Z,99423.95
2018-04-29T16:20:27.354Z,99423.92
2018-04-29T16:22:55.019Z,99418.28
2018-04-29T16:25:23.518Z,99417.61
2018-04-29T16:27:51.058Z,99416.70
2018-04-29T16:30:18.701Z,99419.12
2018-04-29T16:32:46.351Z,99421.78
2018-04-29T16:35:14.705Z,99417.51
2018-04-29T16:37:43.105Z,99416.59
2018-04-29T16:40:10.692Z,99424.72
2018-04-29T16:42:38.247Z,99420.85
2018-04-29T16:45:05.899Z,99428.34
2018-04-29T16:47:34.298Z,99428.72
2018-04-29T16:50:02.155Z,99425.52
2018-04-29T16:52:29.750Z,99431.14
2018-04-29T16:54:57.350Z,99431.52
2018-04-29T16:57:24.913Z,99427.58
2018-04-29T16:59:52.934Z,99429.17
2018-04-29T17:02:21.321Z,99433.02
2018-04-29T17:04:49.721Z,99440.58
2018-04-29T17:07:17.956Z,99441.69
2018-04-29T17:09:45.686Z,99446.73
2018-04-29T17:12:13.288Z,99448.91
2018-04-29T17:14:42.358Z,99450.00
2018-04-29T17:17:10.039Z,99456.52
2018-04-29T17:19:37.615Z,99451.30
2018-04-29T17:22:05.201Z,99451.45
2018-04-29T17:24:32.752Z,99452.42
2018-04-29T17:27:00.594Z,99463.41
2018-04-29T17:29:28.256Z,99460.65
2018-04-29T17:31:56.759Z,99465.09
2018-04-29T17:34:25.638Z,99465.98
2018-04-29T17:36:53.274Z,99463.55
2018-04-29T17:39:21.694Z,99476.27
2018-04-29T17:41:49.351Z,99480.58
2018-04-29T17:44:16.955Z,99480.46
2018-04-29T17:46:44.606Z,99488.75
2018-04-29T17:49:12.316Z,99483.50
2018-04-29T17:51:41.228Z,99485.03
2018-04-29T17:54:09.847Z,99487.41
2018-04-29T17:56:38.969Z,99492.66
2018-04-29T17:59:06.507Z,99487.62
2018-04-29T18:01:34.475Z,99494.78
2018-04-29T18:04:02.109Z,99494.78
2018-04-29T18:06:29.717Z,99493.20
2018-04-29T18:08:58.810Z,99499.62
2018-04-29T18:11:27.002Z,99502.42
2018-04-29T18:13:58.483Z,99506.39
2018-04-29T18:16:26.066Z,99513.55
2018-04-29T18:18:53.608Z,99521.30
2018-04-29T18:21:21.990Z,99518.36
2018-04-29T18:23:49.537Z,99523.94
2018-04-29T18:26:17.963Z,99527.63
2018-04-29T18:28:45.658Z,99529.63
2018-04-29T18:31:14.006Z,99534.77
2018-04-29T18:33:41.614Z,99540.12
2018-04-29T18:36:09.274Z,99547.88
2018-04-29T18:38:36.885Z,99546.77
2018-04-29T18:41:04.426Z,99548.47
2018-04-29T18:43:32.038Z,99550.05
2018-04-29T18:45:59.706Z,99551.98
2018-04-29T18:48:27.346Z,99552.36
2018-04-29T18:50:56.008Z,99564.53
2018-04-29T18:53:24.513Z,99556.78
2018-04-29T18:55:52.102Z,99565.72
2018-04-29T18:58:19.726Z,99564.34
2018-04-29T19:00:47.345Z,99564.63
2018-04-29T19:03:15.991Z,99577.92
2018-04-29T19:05:47.454Z,99576.06
2018-04-29T19:08:15.062Z,99583.63
2018-04-29T19:10:42.616Z,99584.55
2018-04-29T19:13:11.018Z,99580.68
2018-04-29T19:15:38.558Z,99584.70
2018-04-29T19:18:06.159Z,99588.34
2018-04-29T19:20:33.759Z,99593.42
2018-04-29T19:23:01.368Z,99599.33
2018-04-29T19:25:30.347Z,99602.52
2018-04-29T19:28:00.115Z,99602.70
2018-04-29T19:30:27.719Z,99612.85
2018-04-29T19:32:57.427Z,99613.33
2018-04-29T19:35:24.971Z,99610.92
2018-04-29T19:37:53.179Z,99613.73
2018-04-29T19:40:20.747Z,99608.23
2018-04-29T19:42:49.027Z,99611.27
2018-04-29T19:45:16.683Z,99609.23
2018-04-29T19:47:44.230Z,99613.86
2018-04-29T19:50:11.862Z,99613.01
2018-04-29T19:52:39.434Z,99616.09
2018-04-29T19:55:07.519Z,99605.70
2018-04-29T19:57:35.507Z,99613.32
2018-04-29T20:00:03.054Z,99614.22
2018-04-29T20:02:31.114Z,99619.56
2018-04-29T20:04:58.658Z,99626.81
2018-04-29T20:07:26.202Z,99626.98
2018-04-29T20:09:54.039Z,99626.94
2018-04-29T20:12:21.582Z,99628.01
2018-04-29T20:14:49.183Z,99624.16
2018-04-29T20:17:18.026Z,99627.56
2018-04-29T20:19:45.618Z,99633.48
2018-04-29T20:22:13.698Z,99631.53
2018-04-29T20:24:41.315Z,99632.51
2018-04-29T20:27:08.922Z,99631.78
2018-04-29T20:29:36.564Z,99627.19
2018-04-29T20:32:04.202Z,99627.33
2018-04-29T20:34:32.682Z,99631.81
2018-04-29T20:37:00.222Z,99636.15
2018-04-29T20:39:27.827Z,99636.80
2018-04-29T20:41:55.455Z,99649.52
2018-04-29T20:44:23.038Z,99646.08
2018-04-29T20:46:50.641Z,99637.80
2018-04-29T20:49:18.282Z,99637.27
2018-04-29T20:51:45.825Z,99627.66
2018-04-29T20:54:13.421Z,99626.67
2018-04-29T20:56:40.967Z,99632.59
2018-04-29T20:59:09.028Z,99633.20
2018-04-29T21:01:36.641Z,99630.93
2018-04-29T21:04:04.198Z,99630.17
2018-04-29T21:06:31.935Z,99625.96
2018-04-29T21:08:59.688Z,99629.00
2018-04-29T21:11:27.290Z,99631.20
2018-04-29T21:13:54.982Z,99631.25
2018-04-29T21:16:23.338Z,99626.50
2018-04-29T21:18:51.909Z,99631.39
2018-04-29T21:21:19.446Z,99635.19
2018-04-29T21:23:46.986Z,99641.89
2018-04-29T21:26:14.576Z,99643.00
2018-04-29T21:28:42.114Z,99648.14
2018-04-29T21:31:09.725Z,99654.41
2018-04-29T21:33:37.339Z,99652.70
2018-04-29T21:36:04.941Z,99655.58
2018-04-29T21:38:32.602Z,99651.04
2018-04-29T21:41:00.146Z,99644.26
2018-04-29T21:43:27.904Z,99648.36
2018-04-29T21:45:55.514Z,99657.79
2018-04-29T21:48:25.074Z,99654.30
2018-04-29T21:50:52.616Z,99652.58
2018-04-29T21:53:20.255Z,99653.59
2018-04-29T21:55:47.802Z,99652.63
2018-04-29T21:58:15.386Z,99657.27
2018-04-29T22:00:42.983Z,99656.00
2018-04-29T22:03:10.579Z,99662.16
2018-04-29T22:05:38.125Z,99664.41
2018-04-29T22:08:05.738Z,99658.58
2018-04-29T22:10:33.286Z,99661.59
2018-04-29T22:13:02.555Z,99668.92
2018-04-29T22:15:30.210Z,99659.33
2018-04-29T22:17:58.757Z,99662.52
2018-04-29T22:20:26.371Z,99658.00
2018-04-29T22:22:54.041Z,99666.13
2018-04-29T22:25:21.642Z,99661.00
2018-04-29T22:27:49.275Z,99658.78
2018-04-29T22:30:16.814Z,99670.29
2018-04-29T22:32:44.358Z,99671.08
2018-04-29T22:35:11.955Z,99667.81
2018-04-29T22:37:39.557Z,99672.61
2018-04-29T22:40:08.090Z,99674.78
2018-04-29T22:42:35.634Z,99675.73
2018-04-29T22:45:03.183Z,99674.19
2018-04-29T22:47:30.830Z,99668.42
2018-04-29T22:49:58.474Z,99666.95
2018-04-29T22:52:26.074Z,99669.41
2018-04-29T22:54:53.621Z,99674.94
2018-04-29T22:57:22.042Z,99681.68
2018-04-29T22:59:49.616Z,99679.22
2018-04-29T23:02:19.079Z,99670.27
2018-04-29T23:04:46.689Z,99662.38
2018-04-29T23:07:14.234Z,99670.34
2018-04-29T23:09:42.802Z,99667.98
2018-04-29T23:12:10.342Z,99666.16
2018-04-29T23:14:37.984Z,99670.36
2018-04-29T23:17:05.654Z,99666.28
2018-04-29T23:19:34.049Z,99663.48
2018-04-29T23:22:01.592Z,99678.23
2018-04-29T23:24:29.188Z,99672.30
2018-04-29T23:26:56.730Z,99669.06
2018-04-29T23:29:24.270Z,99667.55
2018-04-29T23:31:51.866Z,99660.42
2018-04-29T23:34:19.410Z,99661.49
2018-04-29T23:36:46.997Z,99661.27
2018-04-29T23:39:14.538Z,99650.88
2018-04-29T23:41:43.022Z,99653.59
2018-04-29T23:44:10.607Z,99656.18
2018-04-29T23:46:38.210Z,99657.34
2018-04-29T23:49:05.864Z,99649.31
2018-04-29T23:51:33.406Z,99651.08
2018-04-29T23:54:01.042Z,99650.50
2018-04-29T23:56:28.588Z,99649.77
2018-04-29T23:58:56.240Z,99652.59
